createdAt,value
2022-12-17T00:01:45.847Z,102165.72
2022-12-17T00:07:01.576Z,102163.09
2022-12-17T00:12:17.168Z,102183.13
2022-12-17T00:17:32.625Z,102188.34
2022-12-17T00:22:48.219Z,102199.69
2022-12-17T00:28:03.982Z,102185.72
2022-12-17T00:33:19.042Z,102214.47
2022-12-17T00:38:35.735Z,102217.09
2022-12-17T00:43:50.799Z,102194.44
2022-12-17T00:49:07.066Z,102210.09
2022-12-17T00:54:22.221Z,102234.50
2022-12-17T00:59:37.534Z,102200.53
2022-12-17T01:04:52.914Z,102233.63
2022-12-17T01:10:09.103Z,102248.41
2022-12-17T01:15:25.622Z,102260.59
2022-12-17T01:20:41.361Z,102245.78
2022-12-17T01:25:57.094Z,102256.22
2022-12-17T01:31:12.929Z,102278.00
2022-12-17T01:36:28.591Z,102249.25
2022-12-17T01:41:44.811Z,102268.41
2022-12-17T01:47:06.492Z,102256.19
2022-12-17T01:52:21.923Z,102278.88
2022-12-17T01:57:37.450Z,102277.13
2022-12-17T02:02:53.285Z,102268.38
2022-12-17T02:08:32.364Z,102283.16
2022-12-17T02:14:00.773Z,102266.59
2022-12-17T02:19:42.190Z,102264.88
2022-12-17T02:25:13.912Z,102268.34
2022-12-17T02:30:29.966Z,102250.88
2022-12-17T02:35:50.319Z,102259.56
2022-12-17T02:41:06.573Z,102261.28
2022-12-17T02:46:23.052Z,102283.06
2022-12-17T02:51:39.238Z,102269.06
2022-12-17T02:57:16.933Z,102297.81
2022-12-17T03:02:32.814Z,102275.97
2022-12-17T03:07:48.527Z,102285.53
2022-12-17T03:13:04.749Z,102266.28
2022-12-17T03:18:20.166Z,102312.50
2022-12-17T03:23:37.696Z,102300.28
2022-12-17T03:28:54.141Z,102312.44
2022-12-17T03:34:22.080Z,102315.91
2022-12-17T03:39:40.095Z,102301.03
2022-12-17T03:44:55.212Z,102300.13
2022-12-17T03:50:18.679Z,102321.91
2022-12-17T03:55:36.751Z,102319.28
2022-12-17T04:00:54.086Z,102321.88
2022-12-17T04:06:35.323Z,102322.69
2022-12-17T04:11:51.990Z,102309.56
2022-12-17T04:17:07.302Z,102320.00
2022-12-17T04:22:22.248Z,102335.66
2022-12-17T04:27:37.541Z,102338.25
2022-12-17T04:32:52.527Z,102315.53
2022-12-17T04:38:07.387Z,102326.03
2022-12-17T04:43:26.904Z,102354.75
2022-12-17T04:48:42.033Z,102334.72
2022-12-17T04:53:57.317Z,102328.50
2022-12-17T04:59:12.492Z,102334.66
2022-12-17T05:04:27.544Z,102342.44
2022-12-17T05:09:42.613Z,102345.88
2022-12-17T05:14:57.603Z,102358.06
2022-12-17T05:20:12.651Z,102339.66
2022-12-17T05:25:27.768Z,102366.63
2022-12-17T05:30:43.260Z,102370.09
2022-12-17T05:35:58.144Z,102357.84
2022-12-17T05:41:18.414Z,102359.56
2022-12-17T05:46:33.401Z,102369.16
2022-12-17T05:51:48.918Z,102369.06
2022-12-17T05:57:03.827Z,102376.03
2022-12-17T06:02:19.288Z,102363.84
2022-12-17T06:07:34.459Z,102383.00
2022-12-17T06:12:49.233Z,102375.06
2022-12-17T06:18:16.928Z,102395.97
2022-12-17T06:23:32.233Z,102401.09
2022-12-17T06:28:50.499Z,102396.66
2022-12-17T06:34:05.993Z,102417.56
2022-12-17T06:45:00.707Z,102381.66
2022-12-17T06:50:15.862Z,102413.09
2022-12-17T06:55:30.649Z,102406.94
2022-12-17T07:00:45.621Z,102430.50
2022-12-17T07:06:01.039Z,102424.28
2022-12-17T07:11:20.354Z,102448.69
2022-12-17T07:16:35.897Z,102455.63
2022-12-17T07:21:51.264Z,102452.88
2022-12-17T07:27:06.571Z,102463.31
2022-12-17T07:32:21.838Z,102465.00
2022-12-17T07:37:37.313Z,102478.06
2022-12-17T07:42:52.370Z,102480.63
2022-12-17T07:48:11.769Z,102494.53
2022-12-17T07:53:27.303Z,102479.75
2022-12-17T07:58:42.303Z,102490.13
2022-12-17T08:03:57.305Z,102511.84
2022-12-17T08:09:12.365Z,102508.38
2022-12-17T08:14:27.314Z,102521.47
2022-12-17T08:19:42.345Z,102521.50
2022-12-17T08:24:57.255Z,102525.81
2022-12-17T08:30:12.380Z,102532.81
2022-12-17T08:35:27.537Z,102535.44
2022-12-17T08:40:42.778Z,102531.94
2022-12-17T08:45:57.523Z,102547.72
2022-12-17T08:51:12.994Z,102566.03
2022-12-17T08:56:28.423Z,102540.78
2022-12-17T09:01:44.339Z,102567.06
2022-12-17T09:06:59.791Z,102580.19
2022-12-17T09:12:15.390Z,102571.59
2022-12-17T09:17:30.614Z,102579.47
2022-12-17T09:22:50.996Z,102585.63
2022-12-17T09:28:09.933Z,102582.91
2022-12-17T10:19:13.062Z,102545.19
2022-12-17T11:20:45.116Z,102562.59
2022-12-17T11:26:16.868Z,102587.16
2022-12-17T11:32:10.268Z,102588.91
2022-12-17T11:56:39.584Z,102591.63
2022-12-17T12:01:57.847Z,102590.75
2022-12-17T12:07:43.659Z,102597.78
2022-12-17T12:13:29.660Z,102594.31
2022-12-17T12:19:09.624Z,102594.31
2022-12-17T12:25:17.862Z,102595.25
2022-12-17T12:30:39.836Z,102554.19
2022-12-17T12:42:16.981Z,102595.31
2022-12-17T12:48:12.327Z,102564.72
2022-12-17T12:53:31.139Z,102561.25
2022-12-17T12:58:52.828Z,102566.50
2022-12-17T13:04:16.542Z,102598.03
2022-12-17T13:09:16.066Z,102598.03
2022-12-17T13:14:19.319Z,102604.19
2022-12-17T13:19:18.595Z,102605.03
2022-12-17T13:24:24.955Z,102594.56
2022-12-17T13:29:32.148Z,102594.59
2022-12-17T13:35:08.543Z,102597.22
2022-12-17T13:40:37.143Z,102612.06
2022-12-17T13:45:36.460Z,102606.81
2022-12-17T13:50:35.308Z,102612.97
2022-12-17T13:55:32.501Z,102613.81
2022-12-17T14:00:30.934Z,102598.09
2022-12-17T14:05:31.350Z,102618.19
2022-12-17T14:10:28.411Z,102629.50
2022-12-17T14:15:25.706Z,102634.75
2022-12-17T14:20:24.127Z,102635.63
2022-12-17T14:25:23.038Z,102639.09
2022-12-17T14:30:22.050Z,102647.78
2022-12-17T14:35:28.593Z,102652.16
2022-12-17T14:40:25.899Z,102636.44
2022-12-17T14:45:24.618Z,102648.63
2022-12-17T14:50:20.930Z,102657.34
2022-12-17T14:55:29.925Z,102654.69
2022-12-17T15:00:26.637Z,102657.31
2022-12-17T15:05:23.063Z,102643.31
2022-12-17T15:10:20.564Z,102652.91
2022-12-17T15:15:17.525Z,102666.81
2022-12-17T15:20:18.479Z,102660.66
2022-12-17T15:25:17.684Z,102665.00
2022-12-17T15:30:16.180Z,102670.22
2022-12-17T15:35:13.302Z,102660.53
2022-12-17T15:40:11.784Z,102678.88
2022-12-17T15:45:08.493Z,102670.97
2022-12-17T15:50:05.230Z,102670.94
2022-12-17T15:55:01.740Z,102661.28
2022-12-17T15:59:58.260Z,102681.34
2022-12-17T16:04:55.004Z,102687.38
2022-12-17T16:09:51.478Z,102683.84
2022-12-17T16:14:48.034Z,102686.44
2022-12-17T16:19:44.476Z,102688.16
2022-12-17T16:24:40.958Z,102700.31
2022-12-17T16:29:37.454Z,102682.78
2022-12-17T16:34:34.008Z,102695.88
2022-12-17T16:39:30.802Z,102698.44
2022-12-17T16:44:32.298Z,102709.75
2022-12-17T16:49:28.719Z,102719.34
2022-12-17T16:54:27.411Z,102714.09
2022-12-17T16:59:23.877Z,102705.28
2022-12-17T17:04:23.222Z,102710.50
2022-12-17T17:09:20.921Z,102687.72
2022-12-17T17:14:17.475Z,102722.63
2022-12-17T17:19:13.963Z,102701.56
2022-12-17T17:24:22.495Z,102734.78
2022-12-17T17:29:19.331Z,102746.06
2022-12-17T17:34:16.007Z,102738.19
2022-12-17T17:39:12.472Z,102732.84
2022-12-17T17:44:12.143Z,102750.31
2022-12-17T17:49:08.960Z,102749.34
2022-12-17T17:54:08.374Z,102760.66
2022-12-17T17:59:11.547Z,102760.56
2022-12-17T18:04:10.656Z,102774.50
2022-12-17T18:09:07.855Z,102765.75
2022-12-17T18:14:05.621Z,102776.16
2022-12-17T18:19:10.971Z,102774.34
2022-12-17T18:24:11.387Z,102786.53
2022-12-17T18:29:28.847Z,102785.66
2022-12-17T18:34:27.644Z,102789.09
2022-12-17T18:39:25.028Z,102778.50
2022-12-17T18:44:21.719Z,102796.78
2022-12-17T18:49:19.442Z,102808.06
2022-12-17T18:54:18.603Z,102806.31
2022-12-17T18:59:28.860Z,102811.47
2022-12-17T19:04:26.597Z,102821.00
2022-12-17T19:09:25.997Z,102808.72
2022-12-17T19:14:23.404Z,102827.03
2022-12-17T19:19:20.384Z,102820.84
2022-12-17T19:24:18.456Z,102825.97
2022-12-17T19:29:16.605Z,102845.94
2022-12-17T19:34:14.891Z,102846.78
2022-12-17T19:39:14.264Z,102852.03
2022-12-17T19:44:15.427Z,102852.78
2022-12-17T19:49:14.047Z,102853.56
2022-12-17T19:54:12.902Z,102844.78
2022-12-17T19:59:10.538Z,102836.81
2022-12-17T20:04:09.498Z,102844.56
2022-12-17T20:09:06.654Z,102852.38
2022-12-17T20:14:11.270Z,102858.34
2022-12-17T20:19:10.937Z,102856.56
2022-12-17T20:24:08.455Z,102844.25
2022-12-17T20:29:05.451Z,102869.56
2022-12-17T20:34:03.610Z,102853.91
2022-12-17T20:39:00.555Z,102858.19
2022-12-17T20:44:02.116Z,102875.63
2022-12-17T20:49:00.554Z,102875.56
2022-12-17T20:53:58.655Z,102881.59
2022-12-17T20:58:57.283Z,102874.53
2022-12-17T21:03:55.221Z,102882.31
2022-12-17T21:08:53.624Z,102883.09
2022-12-17T21:13:50.662Z,102882.09
2022-12-17T21:18:47.493Z,102881.22
2022-12-17T21:23:45.237Z,102894.22
2022-12-17T21:28:44.919Z,102909.81
2022-12-17T21:33:41.393Z,102905.47
2022-12-17T21:38:38.880Z,102907.13
2022-12-17T21:43:37.557Z,102915.72
2022-12-17T21:48:41.641Z,102918.16
2022-12-17T21:53:42.207Z,102923.25
2022-12-17T22:03:57.881Z,102921.50
2022-12-17T22:08:58.338Z,102917.09
2022-12-17T22:14:15.534Z,102916.16
2022-12-17T22:19:22.227Z,102923.81
2022-12-17T22:24:22.881Z,102924.53
2022-12-17T22:29:37.893Z,102917.56
2022-12-17T22:35:29.884Z,102916.56
2022-12-17T22:44:31.972Z,102921.72
2022-12-17T22:45:12.122Z,102920.88
2022-12-17T22:50:10.514Z,102918.19
2022-12-17T22:55:07.690Z,102929.53
2022-12-17T23:00:09.540Z,102934.75
2022-12-17T23:05:06.530Z,102912.88
2022-12-17T23:10:03.474Z,102919.16
2022-12-17T23:15:01.129Z,102912.94
2022-12-17T23:20:00.620Z,102915.59
2022-12-17T23:24:57.089Z,102917.97
2022-12-17T23:29:53.552Z,102927.44
2022-12-17T23:34:50.023Z,102920.38
2022-12-17T23:39:46.512Z,102933.38
2022-12-17T23:44:42.904Z,102921.94
2022-12-17T23:49:39.317Z,102919.31
2022-12-17T23:54:35.761Z,102935.69
2022-12-17T23:59:32.306Z,102939.00
